Time;durP1;ratioP1;P1;durP2;ratioP2;P2;SDS_P1;SDS_P2;PMS_P1;PMS_P2;Temp;Humidity;BMP_temperature;BMP_pressure;BME280_temperature;BME280_humidity;BME280_pressure;Samples;Min_cycle;Max_cycle;Signal;HPM_P1;HPM_P2
2023/08/18 00:01:17;;;;;;;10.63;7.03;;;;;;;24.79;79.40;100181.06;5090888;28;20685;-64
2023/08/18 00:03:43;;;;;;;7.53;6.27;;;;;;;24.79;78.81;100186.84;5099700;27;20582;-63
2023/08/18 00:06:08;;;;;;;8.57;7.03;;;;;;;24.79;79.03;100186.03;5090300;28;20253;-63
2023/08/18 00:08:34;;;;;;;7.73;6.93;;;;;;;24.78;79.06;100176.56;5097494;27;20278;-63
2023/08/18 00:11:00;;;;;;;8.23;6.83;;;;;;;24.79;78.86;100178.19;5130055;27;20200;-64
2023/08/18 00:13:26;;;;;;;7.23;6.53;;;;;;;24.79;78.93;100181.06;5093463;28;20197;-64
2023/08/18 00:15:51;;;;;;;7.50;6.57;;;;;;;24.78;79.29;100173.66;5091156;28;20467;-63
2023/08/18 00:18:17;;;;;;;8.07;6.53;;;;;;;24.78;79.43;100173.66;5070069;28;20245;-63
2023/08/18 00:20:42;;;;;;;6.80;6.10;;;;;;;24.78;79.22;100173.66;5088849;28;20177;-63
2023/08/18 00:23:08;;;;;;;7.50;6.17;;;;;;;24.78;78.79;100175.75;5072705;28;20190;-63
2023/08/18 00:25:33;;;;;;;8.20;6.70;;;;;;;24.78;79.06;100172.88;5090558;28;20687;-64
2023/08/18 00:27:59;;;;;;;8.13;6.13;;;;;;;24.78;79.20;100175.75;5093452;28;20908;-64
2023/08/18 00:30:24;;;;;;;8.40;6.87;;;;;;;24.78;78.80;100167.09;5110790;28;20201;-62
2023/08/18 00:32:52;;;;;;;7.83;7.03;;;;;;;24.77;79.14;100171.19;5111853;27;20173;-64
2023/08/18 00:35:18;;;;;;;7.93;6.30;;;;;;;24.76;78.96;100170.41;5131354;27;20246;-64
2023/08/18 00:37:44;;;;;;;7.77;5.90;;;;;;;24.76;78.72;100155.13;5115627;27;20443;-64
2023/08/18 00:40:10;;;;;;;8.27;6.60;;;;;;;24.76;78.81;100161.72;5110627;28;20158;-64
2023/08/18 00:42:36;;;;;;;7.67;6.07;;;;;;;24.76;78.67;100158.84;5108205;28;20437;-63
2023/08/18 00:45:01;;;;;;;6.60;5.87;;;;;;;24.76;78.43;100161.72;5090128;28;20424;-63
2023/08/18 00:47:27;;;;;;;6.73;6.07;;;;;;;24.76;78.58;100158.84;5089585;28;20167;-64
2023/08/18 00:49:52;;;;;;;7.57;6.40;;;;;;;24.77;78.71;100162.53;5081633;28;20213;-63
2023/08/18 00:52:18;;;;;;;6.70;6.00;;;;;;;24.77;78.67;100159.66;5109051;28;20181;-63
2023/08/18 00:54:44;;;;;;;6.73;5.57;;;;;;;24.76;78.55;100158.00;5087823;28;20178;-64
2023/08/18 00:57:10;;;;;;;11.53;6.73;;;;;;;24.76;78.50;100167.50;5110094;27;20173;-63
2023/08/18 00:59:35;;;;;;;6.70;6.00;;;;;;;24.75;78.61;100162.97;5101560;28;20412;-64
2023/08/18 01:02:02;;;;;;;6.03;5.33;;;;;;;24.75;78.29;100156.38;5093817;27;20269;-63
2023/08/18 01:04:29;;;;;;;7.87;5.97;;;;;;;24.75;78.35;100162.97;5125948;27;20199;-63
2023/08/18 01:06:56;;;;;;;7.20;6.50;;;;;;;24.75;78.51;100154.31;5119066;27;20436;-64
2023/08/18 01:09:21;;;;;;;7.10;6.07;;;;;;;24.75;78.32;100162.16;5100397;27;20545;-64
2023/08/18 01:11:50;;;;;;;7.90;7.03;;;;;;;24.75;78.42;100154.31;5112069;27;20407;-63
2023/08/18 01:14:31;;;;;;;6.80;6.10;;;;;;;24.75;78.83;100156.38;5104502;27;20629;-64
2023/08/18 01:16:59;;;;;;;7.10;5.90;;;;;;;24.75;78.39;100150.59;5109943;28;20415;-63
2023/08/18 01:19:24;;;;;;;8.00;5.57;;;;;;;24.74;78.25;100149.78;5081901;28;20950;-63
2023/08/18 01:21:51;;;;;;;7.00;5.83;;;;;;;24.74;78.18;100154.75;5089389;28;20409;-64
2023/08/18 01:24:17;;;;;;;6.33;5.73;;;;;;;24.74;78.65;100151.84;5075921;28;20191;-64
2023/08/18 01:26:42;;;;;;;7.00;6.07;;;;;;;24.74;77.96;100155.53;5091439;28;20420;-64
2023/08/18 01:29:08;;;;;;;7.60;6.37;;;;;;;24.73;78.54;100153.91;5070885;28;20171;-64
2023/08/18 01:31:33;;;;;;;7.23;6.20;;;;;;;24.73;77.98;100148.13;5056761;28;20182;-64
2023/08/18 01:34:01;;;;;;;6.53;5.83;;;;;;;24.73;78.47;100141.56;5100698;27;20185;-63
2023/08/18 01:36:29;;;;;;;7.23;5.80;;;;;;;24.71;78.28;100144.03;5092956;28;20256;-64
2023/08/18 01:38:55;;;;;;;8.50;5.90;;;;;;;24.73;78.06;100141.56;5087178;28;20428;-64
2023/08/18 01:41:22;;;;;;;6.60;5.90;;;;;;;24.71;78.08;100139.09;5070024;28;20510;-64
2023/08/18 01:43:48;;;;;;;8.00;5.90;;;;;;;24.71;78.21;100144.88;5053235;28;20919;-64
2023/08/18 01:46:13;;;;;;;6.50;5.17;;;;;;;24.71;77.95;100139.09;5072336;28;20447;-64
2023/08/18 01:48:39;;;;;;;6.43;5.83;;;;;;;24.73;78.19;100148.13;5088252;28;20194;-64
2023/08/18 01:51:04;;;;;;;7.30;5.80;;;;;;;24.72;78.18;100139.88;5091157;28;20301;-63
2023/08/18 01:53:30;;;;;;;8.50;6.40;;;;;;;24.71;78.00;100136.19;5088597;28;20159;-65
2023/08/18 01:55:55;;;;;;;6.40;5.67;;;;;;;24.72;78.00;100142.78;5103650;28;20170;-63
2023/08/18 01:58:21;;;;;;;6.40;5.63;;;;;;;24.70;78.02;100143.22;5085983;28;20190;-64
2023/08/18 02:00:47;;;;;;;6.40;5.27;;;;;;;24.71;77.89;100141.16;5108220;28;20173;-64
2023/08/18 02:03:12;;;;;;;8.80;6.10;;;;;;;24.69;78.26;100141.56;5102937;27;20437;-64
2023/08/18 02:05:39;;;;;;;8.80;5.23;;;;;;;24.70;78.00;100137.47;5088573;28;20193;-62
2023/08/18 02:08:05;;;;;;;6.53;5.70;;;;;;;24.70;77.68;100140.34;5087704;28;20537;-64
2023/08/18 02:10:30;;;;;;;6.77;5.67;;;;;;;24.70;78.07;100136.63;5090166;28;20538;-64
2023/08/18 02:12:56;;;;;;;6.63;5.50;;;;;;;24.70;77.82;100139.50;5087588;28;20428;-64
2023/08/18 02:15:21;;;;;;;6.50;4.90;;;;;;;24.68;78.26;100134.16;5088077;28;20161;-64
2023/08/18 02:17:47;;;;;;;7.07;5.67;;;;;;;24.68;77.83;100134.16;5099673;27;20289;-64
2023/08/18 02:20:12;;;;;;;6.40;5.40;;;;;;;24.69;78.12;100129.22;5081433;28;20664;-64
2023/08/18 02:22:38;;;;;;;6.93;5.60;;;;;;;24.68;77.48;100128.38;5088472;28;20765;-64
2023/08/18 02:25:03;;;;;;;5.83;5.00;;;;;;;24.67;77.78;100131.69;5093199;28;20184;-64
2023/08/18 02:27:29;;;;;;;9.63;5.63;;;;;;;24.69;77.85;100129.22;5090506;28;20186;-64
2023/08/18 02:29:54;;;;;;;6.43;5.23;;;;;;;24.68;77.84;100130.47;5089257;28;20712;-64
2023/08/18 02:32:20;;;;;;;6.33;5.00;;;;;;;24.68;77.63;100133.34;5097286;28;20964;-64
2023/08/18 02:34:46;;;;;;;6.73;5.67;;;;;;;24.67;77.73;100125.91;5130109;27;20195;-62
2023/08/18 02:37:11;;;;;;;5.90;5.13;;;;;;;24.67;77.79;100132.53;5136398;27;20177;-63
2023/08/18 02:39:38;;;;;;;7.90;5.67;;;;;;;24.67;77.83;100132.53;5127372;27;20181;-64
2023/08/18 02:42:04;;;;;;;6.13;5.53;;;;;;;24.66;77.80;100136.66;5115273;28;20272;-64
2023/08/18 02:44:30;;;;;;;5.80;5.20;;;;;;;24.66;77.62;100135.84;5115396;28;20926;-64
2023/08/18 02:46:56;;;;;;;5.87;5.07;;;;;;;24.66;77.78;100136.66;5107693;28;20435;-64
2023/08/18 02:49:21;;;;;;;6.17;5.00;;;;;;;24.66;77.72;100128.00;5095056;28;20467;-64
2023/08/18 02:51:47;;;;;;;6.20;5.47;;;;;;;24.67;77.54;100134.56;5094713;28;20170;-62
2023/08/18 02:54:12;;;;;;;6.70;5.10;;;;;;;24.65;77.65;100128.41;5100364;27;20549;-64
2023/08/18 02:56:38;;;;;;;5.83;4.63;;;;;;;24.65;77.30;100132.13;5114766;27;20208;-64
2023/08/18 02:59:03;;;;;;;5.47;4.97;;;;;;;24.64;77.50;100124.69;5113435;28;20173;-62
2023/08/18 03:01:29;;;;;;;6.50;5.83;;;;;;;24.63;77.52;100128.84;5112765;27;20178;-63
2023/08/18 03:03:54;;;;;;;6.93;4.63;;;;;;;24.65;77.30;100131.31;5113782;27;20185;-64
2023/08/18 03:06:20;;;;;;;4.90;4.40;;;;;;;24.64;77.62;100127.59;5110206;27;20177;-64
2023/08/18 03:08:45;;;;;;;5.50;4.57;;;;;;;24.64;77.17;100129.69;5110652;28;20181;-63
2023/08/18 03:11:11;;;;;;;5.33;4.83;;;;;;;24.63;77.52;100125.97;5124187;27;20193;-64
2023/08/18 03:13:36;;;;;;;7.23;5.43;;;;;;;24.63;77.25;100123.06;5115072;28;20230;-64
2023/08/18 03:16:04;;;;;;;6.50;5.50;;;;;;;24.64;76.96;100132.56;5101229;28;20193;-64
2023/08/18 03:18:29;;;;;;;6.33;4.90;;;;;;;24.63;77.23;100134.63;5094680;28;20266;-64
2023/08/18 03:20:59;;;;;;;5.67;4.93;;;;;;;24.63;77.26;100130.94;5096983;28;20419;-64
2023/08/18 03:23:25;;;;;;;5.63;5.03;;;;;;;24.63;77.16;100131.72;5105502;27;20178;-63
2023/08/18 03:25:50;;;;;;;6.30;5.37;;;;;;;24.63;77.21;100134.63;5098749;28;21049;-64
2023/08/18 03:28:15;;;;;;;5.60;4.70;;;;;;;24.62;77.00;100127.22;5094737;28;20159;-63
2023/08/18 03:30:41;;;;;;;6.13;4.80;;;;;;;24.62;76.85;100127.22;5103384;28;20214;-63
2023/08/18 03:33:07;;;;;;;5.47;4.50;;;;;;;24.61;76.73;100119.81;5118592;27;20181;-64
2023/08/18 03:35:35;;;;;;;9.03;4.70;;;;;;;24.62;77.11;100123.50;5132088;27;21062;-64
2023/08/18 03:38:03;;;;;;;6.67;4.63;;;;;;;24.61;77.03;100125.56;5135551;27;20387;-63
2023/08/18 03:40:29;;;;;;;5.73;4.90;;;;;;;24.61;76.80;100121.84;5112482;27;20521;-63
2023/08/18 03:42:54;;;;;;;6.80;4.67;;;;;;;24.61;77.06;100124.75;5119871;27;20434;-64
2023/08/18 03:45:20;;;;;;;5.97;4.90;;;;;;;24.61;77.01;100125.56;5131971;27;20195;-64
2023/08/18 03:47:45;;;;;;;6.00;5.00;;;;;;;24.61;77.01;100133.41;5104433;28;20177;-63
2023/08/18 03:50:11;;;;;;;7.20;5.07;;;;;;;24.60;77.08;100132.59;5090640;28;20211;-63
2023/08/18 03:52:37;;;;;;;4.77;4.27;;;;;;;24.60;76.52;100126.81;5090152;28;20623;-64
2023/08/18 03:55:03;;;;;;;6.50;5.00;;;;;;;24.59;76.79;100130.94;5100305;28;20497;-64
2023/08/18 03:57:28;;;;;;;6.77;4.60;;;;;;;24.60;76.61;100129.72;5110295;28;20173;-64
2023/08/18 03:59:55;;;;;;;8.60;6.50;;;;;;;24.59;76.61;100130.94;5105504;28;20176;-64
2023/08/18 04:02:21;;;;;;;6.33;4.40;;;;;;;24.59;76.25;100128.06;5089780;28;20261;-64
2023/08/18 04:04:47;;;;;;;5.37;4.87;;;;;;;24.59;76.74;100125.16;5104667;27;20460;-64
2023/08/18 04:07:13;;;;;;;5.10;4.60;;;;;;;24.59;76.46;100128.06;5090619;28;20827;-64
2023/08/18 04:09:38;;;;;;;6.47;5.23;;;;;;;24.59;76.45;100135.91;5075696;28;20209;-64
2023/08/18 04:12:04;;;;;;;4.83;4.33;;;;;;;24.58;76.68;100129.31;5111348;28;20718;-64
2023/08/18 04:14:29;;;;;;;5.63;4.70;;;;;;;24.59;76.77;100135.91;5111201;28;20621;-63
2023/08/18 04:16:55;;;;;;;5.97;5.00;;;;;;;24.58;76.53;100135.06;5110978;28;20173;-63
2023/08/18 04:19:20;;;;;;;5.63;4.93;;;;;;;24.58;76.60;100135.06;5109071;28;20965;-64
2023/08/18 04:21:46;;;;;;;6.83;4.87;;;;;;;24.58;76.51;100142.91;5110779;28;20174;-64
2023/08/18 04:24:13;;;;;;;6.63;4.90;;;;;;;24.57;76.22;100144.97;5110878;28;20177;-64
2023/08/18 04:26:39;;;;;;;4.97;4.47;;;;;;;24.57;76.31;100147.84;5110788;28;20180;-64
2023/08/18 04:29:04;;;;;;;5.03;4.30;;;;;;;24.57;76.29;100142.06;5100336;28;20443;-64
2023/08/18 04:31:30;;;;;;;5.57;4.97;;;;;;;24.56;76.42;100140.44;5090192;28;20570;-64
2023/08/18 04:33:56;;;;;;;5.90;5.07;;;;;;;24.57;76.42;100153.63;5099627;27;20199;-64
2023/08/18 04:36:21;;;;;;;5.73;4.60;;;;;;;24.57;76.11;100152.78;5090103;28;20212;-63
2023/08/18 04:38:47;;;;;;;6.13;5.53;;;;;;;24.56;76.12;100154.88;5090330;28;20174;-63
2023/08/18 04:41:12;;;;;;;6.80;5.57;;;;;;;24.56;76.43;100157.75;5083550;28;20186;-64
2023/08/18 04:43:38;;;;;;;8.07;5.30;;;;;;;24.55;76.43;100156.13;5088272;28;20163;-64
2023/08/18 04:46:03;;;;;;;8.00;5.50;;;;;;;24.55;76.29;100161.91;5069115;28;20185;-63
2023/08/18 04:48:29;;;;;;;8.80;5.20;;;;;;;24.55;76.39;100159.00;5068489;28;20205;-63
2023/08/18 04:50:54;;;;;;;6.33;5.07;;;;;;;24.56;76.08;100174.25;5106053;28;20201;-64
2023/08/18 04:53:19;;;;;;;5.93;5.23;;;;;;;24.56;76.08;100163.53;5099462;28;20190;-64
2023/08/18 04:55:45;;;;;;;7.20;5.23;;;;;;;24.55;76.45;100161.91;5101237;28;20225;-64
2023/08/18 04:58:14;;;;;;;6.77;5.80;;;;;;;24.55;75.98;100169.72;5088821;28;20213;-64
2023/08/18 05:00:43;;;;;;;7.00;5.73;;;;;;;24.55;76.27;100170.56;5089858;28;20231;-63
2023/08/18 05:03:09;;;;;;;6.20;5.33;;;;;;;24.54;75.96;100171.78;5116546;27;20542;-63
2023/08/18 05:05:38;;;;;;;6.13;5.30;;;;;;;24.55;76.44;100173.44;5109266;28;20473;-63
2023/08/18 05:08:04;;;;;;;7.10;6.07;;;;;;;24.54;76.34;100173.84;5095089;28;20483;-64
2023/08/18 05:10:29;;;;;;;7.30;6.20;;;;;;;24.54;76.11;100174.66;5104404;27;20446;-62
2023/08/18 05:12:55;;;;;;;6.10;5.13;;;;;;;24.54;76.00;100168.88;5088247;27;20571;-63
2023/08/18 05:15:21;;;;;;;7.97;5.93;;;;;;;24.55;76.09;100175.50;5103784;28;20173;-64
2023/08/18 05:17:48;;;;;;;6.87;5.83;;;;;;;24.54;76.11;100171.78;5109860;28;20304;-64
2023/08/18 05:20:13;;;;;;;6.80;4.97;;;;;;;24.53;76.05;100173.03;5094122;28;20907;-64
2023/08/18 05:22:39;;;;;;;7.40;6.20;;;;;;;24.54;76.04;100179.63;5089554;28;20531;-64
2023/08/18 05:25:04;;;;;;;7.30;6.10;;;;;;;24.53;76.36;100173.03;5091958;28;20182;-64
2023/08/18 05:27:30;;;;;;;6.60;5.90;;;;;;;24.54;76.31;100176.75;5089245;28;20880;-63
2023/08/18 05:29:57;;;;;;;7.10;6.37;;;;;;;24.54;76.34;100171.78;5105716;27;20271;-64
2023/08/18 05:32:23;;;;;;;6.70;6.00;;;;;;;24.55;76.52;100181.28;5092699;28;20701;-64
2023/08/18 05:34:53;;;;;;;7.50;6.53;;;;;;;24.53;76.10;100175.91;5093841;27;20438;-64
2023/08/18 05:37:18;;;;;;;6.27;5.63;;;;;;;24.54;76.47;100176.75;5093695;28;20911;-64
2023/08/18 05:39:44;;;;;;;6.70;5.83;;;;;;;24.53;76.52;100181.69;5070204;28;20423;-64
2023/08/18 05:42:10;;;;;;;6.27;5.57;;;;;;;24.54;76.43;100179.63;5088375;28;20194;-62
2023/08/18 05:44:35;;;;;;;7.20;5.20;;;;;;;24.54;76.34;100177.56;5087815;28;20170;-64
2023/08/18 05:47:00;;;;;;;6.20;5.47;;;;;;;24.55;76.22;100175.50;5090260;28;20182;-64
2023/08/18 05:49:26;;;;;;;6.37;5.50;;;;;;;24.53;76.04;100173.03;5087958;28;20236;-64
2023/08/18 05:51:51;;;;;;;6.70;5.97;;;;;;;24.54;76.39;100180.44;5087665;28;20181;-64
2023/08/18 05:54:17;;;;;;;6.80;5.40;;;;;;;24.54;76.70;100179.63;5089475;28;20177;-64
2023/08/18 05:56:42;;;;;;;7.50;5.47;;;;;;;24.54;76.17;100182.53;5074512;28;20592;-64
2023/08/18 05:59:08;;;;;;;6.97;5.63;;;;;;;24.54;76.50;100186.22;5088951;28;20577;-65
2023/08/18 06:01:34;;;;;;;6.40;5.07;;;;;;;24.54;76.43;100189.09;5096672;28;20196;-64
2023/08/18 06:03:59;;;;;;;6.00;5.40;;;;;;;24.54;77.09;100186.22;5120173;27;20380;-63
2023/08/18 06:06:24;;;;;;;5.67;5.07;;;;;;;24.54;76.26;100185.41;5128964;27;20422;-63
2023/08/18 06:08:50;;;;;;;5.10;4.60;;;;;;;24.53;76.28;100199.00;5129756;27;20188;-63
2023/08/18 06:11:15;;;;;;;5.50;4.83;;;;;;;24.54;76.28;100194.06;5098311;27;20213;-63
2023/08/18 06:13:41;;;;;;;6.10;5.17;;;;;;;24.55;76.47;100192.81;5087527;28;20590;-64
2023/08/18 06:16:06;;;;;;;5.67;5.07;;;;;;;24.54;76.27;100206.41;5091394;28;20178;-65
2023/08/18 06:18:33;;;;;;;6.90;5.40;;;;;;;24.54;76.18;100194.06;5086526;28;20921;-64
2023/08/18 06:20:58;;;;;;;8.00;5.40;;;;;;;24.54;76.36;100209.31;5086379;28;20198;-63
2023/08/18 06:23:24;;;;;;;6.20;5.60;;;;;;;24.54;76.65;100203.53;5089871;28;20876;-64
2023/08/18 06:25:49;;;;;;;4.70;4.20;;;;;;;24.53;76.44;100204.78;5127282;27;20176;-64
2023/08/18 06:28:14;;;;;;;5.43;4.60;;;;;;;24.53;76.26;100201.91;5128251;27;20229;-63
2023/08/18 06:30:40;;;;;;;6.23;4.90;;;;;;;24.53;76.38;100192.44;5117610;28;20291;-65
2023/08/18 06:33:05;;;;;;;11.40;5.20;;;;;;;24.53;76.61;100203.97;5096339;28;20184;-65
2023/08/18 06:35:31;;;;;;;6.17;5.03;;;;;;;24.54;76.45;100208.50;5128402;28;20218;-65
2023/08/18 06:37:56;;;;;;;5.00;4.33;;;;;;;24.53;76.28;100207.66;5100085;28;20201;-65
2023/08/18 06:40:22;;;;;;;5.47;4.80;;;;;;;24.54;76.55;100202.72;5087207;28;20181;-64
2023/08/18 06:42:49;;;;;;;5.33;4.53;;;;;;;24.52;76.32;100206.03;5089604;28;20186;-64
2023/08/18 06:45:14;;;;;;;5.53;4.40;;;;;;;24.52;76.72;100206.03;5087099;28;20188;-64
2023/08/18 06:47:40;;;;;;;5.27;3.90;;;;;;;24.53;76.62;100206.88;5088033;28;20523;-65
2023/08/18 06:50:05;;;;;;;5.40;4.67;;;;;;;24.52;76.45;100203.16;5124108;28;20207;-64
2023/08/18 06:52:34;;;;;;;5.80;4.70;;;;;;;24.52;76.22;100208.09;5127963;28;20608;-65
2023/08/18 06:55:00;;;;;;;5.47;4.53;;;;;;;24.52;76.66;100210.97;5106892;28;20196;-64
2023/08/18 06:57:26;;;;;;;4.63;4.10;;;;;;;24.52;76.64;100206.03;5108155;28;20419;-64
2023/08/18 06:59:51;;;;;;;5.53;4.57;;;;;;;24.53;76.54;100210.56;5103879;28;20196;-64
2023/08/18 07:02:17;;;;;;;5.67;4.53;;;;;;;24.52;76.45;100214.69;5069880;28;20174;-65
2023/08/18 07:04:43;;;;;;;5.30;4.80;;;;;;;24.52;76.74;100210.97;5121645;28;20190;-64
2023/08/18 07:07:08;;;;;;;5.73;4.50;;;;;;;24.52;76.64;100208.91;5095750;28;20525;-65
2023/08/18 07:09:33;;;;;;;5.40;4.30;;;;;;;24.52;76.38;100211.81;5086902;28;20186;-64
2023/08/18 07:11:59;;;;;;;5.40;4.77;;;;;;;24.52;76.64;100210.97;5101125;28;20252;-64
2023/08/18 07:14:24;;;;;;;4.43;4.03;;;;;;;24.52;76.66;100214.69;5080272;28;20182;-65
2023/08/18 07:16:50;;;;;;;5.70;4.63;;;;;;;24.52;76.43;100217.56;5109379;28;20184;-65
2023/08/18 07:19:15;;;;;;;5.57;4.50;;;;;;;24.52;76.31;100216.75;5096206;28;20230;-65
2023/08/18 07:21:41;;;;;;;5.60;4.53;;;;;;;24.52;76.46;100216.75;5091615;28;20634;-64
2023/08/18 07:24:07;;;;;;;5.17;4.60;;;;;;;24.52;76.55;100223.34;5097572;28;20798;-64
2023/08/18 07:26:33;;;;;;;5.10;4.40;;;;;;;24.51;76.84;100221.72;5111919;28;20573;-63
2023/08/18 07:28:58;;;;;;;4.90;3.80;;;;;;;24.52;76.20;100231.19;5111894;28;20400;-64
2023/08/18 07:31:23;;;;;;;5.90;4.40;;;;;;;24.53;76.66;100229.97;5094597;28;20214;-64
2023/08/18 07:33:49;;;;;;;5.00;4.47;;;;;;;24.53;76.59;100235.72;5116989;27;20173;-64
2023/08/18 07:36:14;;;;;;;5.70;4.70;;;;;;;24.54;76.43;100237.38;5127945;27;20184;-64
2023/08/18 07:38:40;;;;;;;5.03;4.40;;;;;;;24.52;76.58;100240.66;5107488;27;20197;-65
2023/08/18 07:41:05;;;;;;;5.50;4.50;;;;;;;24.53;76.44;100241.50;5090361;28;20177;-65
2023/08/18 07:43:31;;;;;;;5.70;4.60;;;;;;;24.52;76.67;100240.66;5090906;28;20920;-64
2023/08/18 07:45:56;;;;;;;7.50;3.83;;;;;;;24.54;76.27;100243.13;5091647;28;20197;-64
2023/08/18 07:48:22;;;;;;;6.07;4.53;;;;;;;24.54;76.19;100240.25;5089768;28;20228;-64
2023/08/18 07:50:47;;;;;;;5.70;4.80;;;;;;;24.53;76.75;100245.19;5100918;28;20212;-64
2023/08/18 07:53:13;;;;;;;5.47;4.53;;;;;;;24.53;76.40;100250.97;5111021;28;20170;-64
2023/08/18 07:55:38;;;;;;;7.83;4.23;;;;;;;24.53;76.47;100248.09;5109478;28;20186;-64
2023/08/18 07:58:04;;;;;;;4.93;4.20;;;;;;;24.53;76.71;100248.09;5090505;28;20170;-64
2023/08/18 08:00:30;;;;;;;4.73;4.23;;;;;;;24.53;76.52;100238.63;5074270;28;20194;-64
2023/08/18 08:02:56;;;;;;;8.50;5.37;;;;;;;24.53;76.40;100250.97;5095455;27;20186;-64
2023/08/18 08:05:21;;;;;;;6.27;4.80;;;;;;;24.53;76.56;100250.97;5116962;27;20837;-63
2023/08/18 08:07:47;;;;;;;6.47;4.80;;;;;;;24.53;76.52;100247.28;5099877;28;20186;-64
2023/08/18 08:10:12;;;;;;;6.10;4.37;;;;;;;24.54;76.81;100248.91;5092598;28;20202;-63
2023/08/18 08:12:38;;;;;;;5.27;4.47;;;;;;;24.53;76.63;100250.97;5094132;28;20190;-64
2023/08/18 08:15:04;;;;;;;8.10;5.73;;;;;;;24.53;76.34;100250.97;5090693;28;20174;-64
2023/08/18 08:17:30;;;;;;;5.70;4.30;;;;;;;24.55;76.46;100244.78;5091437;28;20586;-64
2023/08/18 08:19:56;;;;;;;5.97;4.60;;;;;;;24.56;76.48;100246.41;5130200;27;20422;-63
2023/08/18 08:22:23;;;;;;;5.70;4.73;;;;;;;24.54;76.68;100243.94;5131416;27;20551;-63
2023/08/18 08:24:50;;;;;;;6.97;4.70;;;;;;;24.56;76.40;100247.25;5103694;27;20451;-64
2023/08/18 08:27:16;;;;;;;5.97;4.50;;;;;;;24.55;76.72;100239.84;5088493;28;20404;-63
2023/08/18 08:29:41;;;;;;;5.97;4.40;;;;;;;24.57;76.52;100254.66;5090932;28;20464;-64
2023/08/18 08:32:07;;;;;;;6.70;4.77;;;;;;;24.56;76.62;100246.41;5090478;28;20215;-64
2023/08/18 08:34:32;;;;;;;7.77;4.90;;;;;;;24.56;76.77;100250.13;5119582;27;20181;-63
2023/08/18 08:36:58;;;;;;;6.57;4.60;;;;;;;24.56;76.68;100241.47;5129369;27;20214;-64
2023/08/18 08:39:23;;;;;;;7.80;5.50;;;;;;;24.57;76.59;100248.06;5100100;27;20186;-63
2023/08/18 08:41:49;;;;;;;8.53;4.77;;;;;;;24.56;76.69;100241.47;5108594;28;20169;-62
2023/08/18 08:44:14;;;;;;;6.13;4.70;;;;;;;24.56;76.63;100241.47;5104670;27;20190;-64
2023/08/18 08:46:40;;;;;;;6.00;4.77;;;;;;;24.56;76.95;100238.59;5089214;28;20166;-64
2023/08/18 08:49:05;;;;;;;5.70;4.80;;;;;;;24.57;76.74;100243.09;5070975;28;20190;-63
2023/08/18 08:51:34;;;;;;;5.00;4.50;;;;;;;24.57;76.84;100233.63;5073355;28;20353;-64
2023/08/18 08:54:00;;;;;;;6.50;4.93;;;;;;;24.56;76.74;100235.69;5079123;28;20189;-64
2023/08/18 08:56:28;;;;;;;7.50;5.07;;;;;;;24.59;76.68;100239.84;5081957;28;20466;-64
2023/08/18 08:58:53;;;;;;;5.30;4.47;;;;;;;24.57;76.91;100237.34;5089326;28;20186;-63
2023/08/18 09:01:20;;;;;;;5.83;4.70;;;;;;;24.56;76.69;100241.47;5089439;28;20435;-65
2023/08/18 09:03:46;;;;;;;6.43;4.60;;;;;;;24.58;76.69;100238.16;5091145;27;20617;-64
2023/08/18 09:06:12;;;;;;;7.73;5.90;;;;;;;24.58;76.65;100239.00;5113682;27;20435;-64
2023/08/18 09:08:37;;;;;;;7.90;5.70;;;;;;;24.59;76.35;100239.84;5081975;28;20202;-63
2023/08/18 09:11:02;;;;;;;13.43;6.10;;;;;;;24.59;76.35;100237.75;5088547;28;20198;-62
2023/08/18 09:13:28;;;;;;;7.50;6.07;;;;;;;24.60;76.81;100230.75;5110471;27;20181;-63
2023/08/18 09:15:53;;;;;;;8.43;5.20;;;;;;;24.62;77.69;100231.16;5108939;28;20178;-64
2023/08/18 09:18:19;;;;;;;10.50;6.27;;;;;;;24.64;77.52;100233.63;5094627;28;20234;-63
2023/08/18 09:20:45;;;;;;;8.43;5.80;;;;;;;24.66;77.74;100239.78;5089536;28;20182;-61
2023/08/18 09:23:11;;;;;;;9.13;6.13;;;;;;;24.63;77.70;100229.09;5102232;28;20266;-63
2023/08/18 09:25:36;;;;;;;7.53;5.57;;;;;;;24.63;77.66;100235.66;5104202;28;20432;-62
2023/08/18 09:28:05;;;;;;;7.57;5.60;;;;;;;24.63;78.02;100224.13;5105817;27;20259;-63
2023/08/18 09:30:31;;;;;;;7.10;5.60;;;;;;;24.61;77.61;100226.63;5069406;28;20871;-63
2023/08/18 09:33:00;;;;;;;8.80;5.90;;;;;;;24.62;77.76;100230.31;5106212;27;20447;-63
2023/08/18 09:35:25;;;;;;;14.90;7.30;;;;;;;24.63;78.25;100229.09;5128122;27;21217;-63
2023/08/18 09:37:55;;;;;;;8.63;6.60;;;;;;;24.62;78.38;100236.91;5093574;28;20439;-64
2023/08/18 09:40:21;;;;;;;7.20;5.93;;;;;;;24.62;78.52;100236.91;5106512;28;20566;-64
2023/08/18 09:42:46;;;;;;;10.70;6.03;;;;;;;24.63;78.38;100226.22;5095287;28;20424;-64
2023/08/18 09:45:12;;;;;;;10.23;5.83;;;;;;;24.61;78.40;100229.50;5108683;28;20185;-64
2023/08/18 09:47:37;;;;;;;9.87;5.03;;;;;;;24.61;78.60;100229.50;5108474;28;20169;-64
2023/08/18 09:50:03;;;;;;;9.03;6.10;;;;;;;24.61;78.54;100222.91;5083782;28;20210;-64
2023/08/18 09:52:28;;;;;;;8.63;5.40;;;;;;;24.60;78.35;100225.00;5078369;28;20189;-64
2023/08/18 09:55:09;;;;;;;7.60;5.70;;;;;;;24.60;78.15;100219.22;5108040;28;20718;-64
2023/08/18 09:57:37;;;;;;;7.07;5.83;;;;;;;24.60;78.22;100216.31;5106158;28;20173;-63
2023/08/18 10:00:04;;;;;;;8.70;5.97;;;;;;;24.60;78.31;100219.22;5084011;28;20467;-63
2023/08/18 10:02:33;;;;;;;7.37;5.37;;;;;;;24.60;78.30;100218.38;5087808;28;20409;-63
2023/08/18 10:04:59;;;;;;;7.00;5.83;;;;;;;24.60;78.70;100225.00;5108263;27;20497;-64
2023/08/18 10:07:24;;;;;;;6.37;5.57;;;;;;;24.61;78.50;100226.63;5082344;28;20435;-64
2023/08/18 10:09:51;;;;;;;6.93;5.00;;;;;;;24.61;78.31;100223.72;5054746;28;20291;-64
2023/08/18 10:12:16;;;;;;;5.93;5.07;;;;;;;24.60;78.45;100216.31;5069583;28;20196;-62
2023/08/18 10:14:42;;;;;;;8.30;6.40;;;;;;;24.60;78.43;100210.56;5094716;27;21003;-63
2023/08/18 10:17:07;;;;;;;7.80;5.33;;;;;;;24.62;78.48;100205.16;5110503;27;20616;-63
2023/08/18 10:19:50;;;;;;;7.80;6.27;;;;;;;24.61;78.03;100215.06;5074905;28;20241;-64
2023/08/18 10:22:19;;;;;;;9.37;5.67;;;;;;;24.62;78.32;100213.00;5089278;28;20181;-63
2023/08/18 10:24:46;;;;;;;9.00;5.67;;;;;;;24.63;78.24;100214.66;5103843;28;20497;-64
2023/08/18 10:27:27;;;;;;;11.67;6.03;;;;;;;24.62;78.37;100219.59;5086503;28;20413;-63
2023/08/18 10:29:58;;;;;;;8.20;5.23;;;;;;;24.63;78.47;100211.78;5086259;28;21213;-63
2023/08/18 10:32:24;;;;;;;7.80;6.10;;;;;;;24.62;78.42;100205.16;5086485;28;20519;-64
2023/08/18 10:34:50;;;;;;;7.83;5.90;;;;;;;24.63;78.10;100206.78;5099700;28;20440;-64
2023/08/18 10:37:16;;;;;;;7.93;5.50;;;;;;;24.62;78.07;100199.38;5086758;28;20226;-63
2023/08/18 10:39:41;;;;;;;7.23;5.60;;;;;;;24.61;78.38;100197.75;5096398;28;20967;-63
2023/08/18 10:42:09;;;;;;;7.80;6.10;;;;;;;24.63;78.36;100195.25;5089028;28;20189;-64
2023/08/18 10:44:34;;;;;;;6.13;5.47;;;;;;;24.62;78.27;100199.38;5089090;28;20212;-63
2023/08/18 10:47:02;;;;;;;9.37;5.97;;;;;;;24.62;78.39;100190.72;5108850;28;20545;-63
2023/08/18 10:49:28;;;;;;;10.10;5.80;;;;;;;24.62;78.41;100192.78;5073533;28;20206;-64
2023/08/18 10:51:53;;;;;;;7.47;5.70;;;;;;;24.62;78.13;100193.59;5088898;28;20455;-64
2023/08/18 10:54:19;;;;;;;9.23;5.23;;;;;;;24.63;78.17;100195.25;5093428;28;20178;-63
2023/08/18 10:56:44;;;;;;;6.47;4.80;;;;;;;24.63;78.18;100189.47;5091637;28;20159;-64
2023/08/18 10:59:10;;;;;;;11.03;5.10;;;;;;;24.63;78.47;100180.81;5091043;28;20890;-63
2023/08/18 11:01:35;;;;;;;5.90;4.90;;;;;;;24.63;78.08;100177.94;5091587;28;20185;-64
2023/08/18 11:04:03;;;;;;;7.97;6.03;;;;;;;24.62;78.21;100176.28;5100444;28;20190;-63
2023/08/18 11:06:29;;;;;;;7.83;5.63;;;;;;;24.63;78.49;100175.03;5091390;28;20166;-64
2023/08/18 11:08:54;;;;;;;8.07;5.40;;;;;;;24.63;77.90;100172.16;5075213;27;20417;-64
2023/08/18 11:11:20;;;;;;;7.10;6.00;;;;;;;24.63;78.00;100171.34;5113445;27;20198;-63
2023/08/18 11:13:46;;;;;;;6.30;5.37;;;;;;;24.64;78.39;100170.91;5095630;28;20236;-64
2023/08/18 11:16:11;;;;;;;6.33;4.67;;;;;;;24.64;78.06;100162.25;5090598;28;20174;-64
2023/08/18 11:18:40;;;;;;;6.37;5.43;;;;;;;24.66;78.17;100158.94;5085447;28;20475;-64